Strona główna
METAR-TAF:

METAR-TAF

Lotnisko :

Port lotniczy Sogndal

Sogndal, Norwegia

Szerokość geograficzna: 61-09N, Długość geograficzna: 007-08E, wysokość: 49 m

Aktualna obserwacja pogody

Raport powstał 5 godziny i 2 minut temu, godzina 20:23 UTC
Wiatr 16 kt od południowy zachód w porywach dochodzący do 27 kt
Temperatura 6°C
Wilgotność 87%
Ciśnienie 1021 hPa
Widzialność 10 km lub więcej
Mało chmury
Rozproszone chmury na wysokości 2200 ft
Przerywane chmury na wysokości 3100 ft
słaby deszcz

METAR: ENSG 202023Z 23016G27KT 9999 -RA FEW/// SCT022 BKN031 06/04 Q1021 RMK WIND 3806FT 26050G60KT

czas: 02:25 (01:25 UTC)


TAF: brakujący

Obserwacja i prognoza pogody dla ponad 4000 lotnisk (raport METAR i TAF).

Dostępne stacje oznaczono żółtymi i czerwonymi punktami na mapie.

Najedź kursorem aby zobaczyć nazwę stacji.

Kliknij aby zobaczyć obserwacje i prognozy pogody.

Aby zmienić mapę: kliknij na zielony przycisk z czarnym krzyżykiem, aby powiększyć; na zielony przycisk z myślnikiem, aby pomniejszyć; na zielone strzałki, aby przejść do map sąsiednich.


METAR-TAF: